createdAt,value
2018-10-03T00:00:24.657Z,0.00
2018-10-03T00:01:24.633Z,0.00
2018-10-03T00:02:24.605Z,0.00
2018-10-03T00:03:24.580Z,0.00
2018-10-03T00:04:24.554Z,0.00
2018-10-03T00:05:24.530Z,0.00
2018-10-03T00:06:24.498Z,0.00
2018-10-03T00:07:24.470Z,0.00
2018-10-03T00:08:24.445Z,0.00
2018-10-03T00:09:24.425Z,0.00
2018-10-03T00:10:24.394Z,0.00
2018-10-03T00:11:24.365Z,0.00
2018-10-03T00:12:24.348Z,0.00
2018-10-03T00:13:24.308Z,0.00
2018-10-03T00:14:24.287Z,0.00
2018-10-03T00:15:24.263Z,0.00
2018-10-03T00:16:24.230Z,0.00
2018-10-03T00:17:24.210Z,0.00
2018-10-03T00:18:24.182Z,0.00
2018-10-03T00:19:24.153Z,0.00
2018-10-03T00:20:24.130Z,0.00
2018-10-03T00:21:24.097Z,0.00
2018-10-03T00:22:24.074Z,0.00
2018-10-03T00:23:24.121Z,0.00
2018-10-03T00:24:24.019Z,0.00
2018-10-03T00:25:23.998Z,0.00
2018-10-03T00:26:23.978Z,0.00
2018-10-03T00:27:23.946Z,0.00
2018-10-03T00:28:23.960Z,0.00
2018-10-03T00:29:23.887Z,0.00
2018-10-03T00:30:23.862Z,0.00
2018-10-03T00:31:23.837Z,0.00
2018-10-03T00:32:23.809Z,0.00
2018-10-03T00:33:23.789Z,0.00
2018-10-03T00:34:23.752Z,0.00
2018-10-03T00:35:23.735Z,0.00
2018-10-03T00:36:23.705Z,0.00
2018-10-03T00:37:23.675Z,0.00
2018-10-03T00:38:23.651Z,0.00
2018-10-03T00:39:23.622Z,0.00
2018-10-03T00:40:23.598Z,0.00
2018-10-03T00:41:23.582Z,0.00
2018-10-03T00:42:23.545Z,0.00
2018-10-03T00:43:23.515Z,0.00
2018-10-03T00:44:23.491Z,0.00
2018-10-03T00:45:23.465Z,0.00
2018-10-03T00:46:23.437Z,0.00
2018-10-03T00:47:23.413Z,0.00
2018-10-03T00:48:23.386Z,0.00
2018-10-03T00:49:23.358Z,0.00
2018-10-03T00:50:23.333Z,0.00
2018-10-03T00:51:23.301Z,0.00
2018-10-03T00:52:23.278Z,0.00
2018-10-03T00:53:23.245Z,0.00
2018-10-03T00:54:23.229Z,0.00
2018-10-03T00:55:23.200Z,0.00
2018-10-03T00:56:23.169Z,0.00
2018-10-03T00:57:23.150Z,0.00
2018-10-03T00:58:23.117Z,0.00
2018-10-03T00:59:23.093Z,0.00
2018-10-03T01:00:23.066Z,0.00
2018-10-03T01:01:23.036Z,0.00
2018-10-03T01:02:23.010Z,0.00
2018-10-03T01:03:22.990Z,0.00
2018-10-03T01:04:22.956Z,0.00
2018-10-03T01:05:22.927Z,0.00
2018-10-03T01:06:22.904Z,0.00
2018-10-03T01:07:22.882Z,0.00
2018-10-03T01:08:22.848Z,0.00
2018-10-03T01:09:22.834Z,0.00
2018-10-03T01:10:22.797Z,0.00
2018-10-03T01:11:22.771Z,0.00
2018-10-03T01:12:22.747Z,0.00
2018-10-03T01:13:22.719Z,0.00
2018-10-03T01:14:22.694Z,0.00
2018-10-03T01:15:22.666Z,0.00
2018-10-03T01:16:22.638Z,0.00
2018-10-03T01:17:22.614Z,0.00
2018-10-03T01:18:22.592Z,0.00
2018-10-03T01:19:22.558Z,0.00
2018-10-03T01:20:22.531Z,0.00
2018-10-03T01:21:22.516Z,0.00
2018-10-03T01:22:22.482Z,0.00
2018-10-03T01:23:22.454Z,0.00
2018-10-03T01:24:22.448Z,0.00
2018-10-03T01:25:22.402Z,0.00
2018-10-03T01:26:22.374Z,0.00
2018-10-03T01:27:22.351Z,0.00
2018-10-03T01:28:22.319Z,0.00
2018-10-03T01:29:22.295Z,0.00
2018-10-03T01:30:22.270Z,0.00
2018-10-03T01:31:22.248Z,0.00
2018-10-03T01:32:22.216Z,0.00
2018-10-03T01:33:22.191Z,0.00
2018-10-03T01:34:22.162Z,0.00
2018-10-03T01:35:22.141Z,0.00
2018-10-03T01:36:22.112Z,0.00
2018-10-03T01:37:22.084Z,0.00
2018-10-03T01:38:22.108Z,0.00
2018-10-03T01:39:22.034Z,0.00
2018-10-03T01:40:22.017Z,0.00
2018-10-03T01:41:21.976Z,0.00
2018-10-03T01:42:21.952Z,0.00
2018-10-03T01:43:21.924Z,0.00
2018-10-03T01:44:21.895Z,0.00
2018-10-03T01:45:36.578Z,0.00
2018-10-03T01:46:21.843Z,0.00
2018-10-03T01:47:21.820Z,0.00
2018-10-03T01:48:21.792Z,0.00
2018-10-03T01:49:21.764Z,0.00
2018-10-03T01:50:21.736Z,0.00
2018-10-03T01:51:21.710Z,0.00
2018-10-03T01:52:21.685Z,0.00
2018-10-03T01:53:21.660Z,0.00
2018-10-03T01:54:21.638Z,0.00
2018-10-03T01:55:21.603Z,0.00
2018-10-03T01:56:21.576Z,0.00
2018-10-03T01:57:21.556Z,0.00
2018-10-03T01:58:21.527Z,0.00
2018-10-03T01:59:21.505Z,0.00
2018-10-03T02:00:21.477Z,0.00
2018-10-03T02:01:21.442Z,0.00
2018-10-03T02:02:21.422Z,0.00
2018-10-03T02:03:21.392Z,0.00
2018-10-03T02:04:21.385Z,0.00
2018-10-03T02:05:21.347Z,0.00
2018-10-03T02:06:21.315Z,0.00
2018-10-03T02:07:21.294Z,0.00
2018-10-03T02:08:21.258Z,0.00
2018-10-03T02:09:21.231Z,0.00
2018-10-03T02:10:21.201Z,0.00
2018-10-03T02:11:21.190Z,0.00
2018-10-03T02:12:21.150Z,0.00
2018-10-03T02:13:21.149Z,0.00
2018-10-03T02:14:21.099Z,0.00
2018-10-03T02:15:21.071Z,0.00
2018-10-03T02:16:21.055Z,0.00
2018-10-03T02:17:21.016Z,0.00
2018-10-03T02:18:20.992Z,0.00
2018-10-03T02:19:20.968Z,0.00
2018-10-03T02:20:20.937Z,0.00
2018-10-03T02:21:20.917Z,0.00
2018-10-03T02:22:20.900Z,0.00
2018-10-03T02:23:20.862Z,0.00
2018-10-03T02:24:20.833Z,0.00
2018-10-03T02:25:20.810Z,0.00
2018-10-03T02:26:20.786Z,0.00
2018-10-03T02:27:20.753Z,0.00
2018-10-03T02:28:20.729Z,0.00
2018-10-03T02:29:20.699Z,0.00
2018-10-03T02:30:20.671Z,0.00
2018-10-03T02:31:20.652Z,0.00
2018-10-03T02:32:20.619Z,0.00
2018-10-03T02:33:20.602Z,0.00
2018-10-03T02:34:20.571Z,0.00
2018-10-03T02:35:20.546Z,0.00
2018-10-03T02:36:20.519Z,0.00
2018-10-03T02:37:20.484Z,0.00
2018-10-03T02:38:20.460Z,0.00
2018-10-03T02:39:20.437Z,0.00
2018-10-03T02:40:20.410Z,0.00
2018-10-03T02:41:20.381Z,0.00
2018-10-03T02:42:20.357Z,0.00
2018-10-03T02:43:20.331Z,0.00
2018-10-03T02:44:20.300Z,0.00
2018-10-03T02:45:20.276Z,0.00
2018-10-03T02:46:20.250Z,0.00
2018-10-03T02:47:20.235Z,0.00
2018-10-03T02:48:20.199Z,0.00
2018-10-03T02:49:20.164Z,0.00
2018-10-03T02:50:20.149Z,0.00
2018-10-03T02:51:20.114Z,0.00
2018-10-03T02:52:20.087Z,0.00
2018-10-03T02:53:20.088Z,0.00
2018-10-03T02:54:20.035Z,0.00
2018-10-03T02:55:20.016Z,0.00
2018-10-03T02:56:19.982Z,0.00
2018-10-03T02:57:19.951Z,0.00
2018-10-03T02:58:19.928Z,0.00
2018-10-03T02:59:19.906Z,0.00
2018-10-03T03:00:19.873Z,0.00
2018-10-03T03:01:19.854Z,0.00
2018-10-03T03:02:19.824Z,0.00
2018-10-03T03:03:19.797Z,0.00
2018-10-03T03:04:19.765Z,0.00
2018-10-03T03:05:19.760Z,0.00
2018-10-03T03:06:19.719Z,0.00
2018-10-03T03:07:19.705Z,0.00
2018-10-03T03:08:19.672Z,0.00
2018-10-03T03:09:19.635Z,0.00
2018-10-03T03:10:19.611Z,0.00
2018-10-03T03:11:19.584Z,0.00
2018-10-03T03:12:19.557Z,0.00
2018-10-03T03:13:19.531Z,0.00
2018-10-03T03:14:19.514Z,0.00
2018-10-03T03:15:19.485Z,0.00
2018-10-03T03:16:19.452Z,0.00
2018-10-03T03:17:19.424Z,0.00
2018-10-03T03:18:19.396Z,0.00
2018-10-03T03:19:19.372Z,0.00
2018-10-03T03:20:19.351Z,0.00
2018-10-03T03:21:19.316Z,0.00
2018-10-03T03:22:19.294Z,0.00
2018-10-03T03:23:19.261Z,0.00
2018-10-03T03:24:19.237Z,0.00
2018-10-03T03:25:19.209Z,0.00
2018-10-03T03:26:19.180Z,0.00
2018-10-03T03:27:19.162Z,0.00
2018-10-03T03:28:19.129Z,0.00
2018-10-03T03:29:19.104Z,0.00
2018-10-03T03:30:19.103Z,0.00
2018-10-03T03:31:19.056Z,0.00
2018-10-03T03:32:19.025Z,0.00
2018-10-03T03:33:18.996Z,0.00
2018-10-03T03:34:18.969Z,0.00
2018-10-03T03:35:18.950Z,0.00
2018-10-03T03:36:18.928Z,0.00
2018-10-03T03:37:18.895Z,0.00
2018-10-03T03:38:18.861Z,0.00
2018-10-03T03:39:18.842Z,0.00
2018-10-03T03:40:18.815Z,0.00
2018-10-03T03:41:18.782Z,0.00
2018-10-03T03:42:18.765Z,0.00
2018-10-03T03:43:18.737Z,0.00
2018-10-03T03:44:18.706Z,0.00
2018-10-03T03:45:18.678Z,0.00
2018-10-03T03:46:18.656Z,0.00
2018-10-03T03:47:18.622Z,0.00
2018-10-03T03:48:18.611Z,0.00
2018-10-03T03:49:18.572Z,0.00
2018-10-03T03:50:18.545Z,0.00
2018-10-03T03:51:18.520Z,0.00
2018-10-03T03:52:18.493Z,0.00
2018-10-03T03:53:18.466Z,0.00
2018-10-03T03:54:18.440Z,0.00
2018-10-03T03:55:18.413Z,0.00
2018-10-03T03:56:18.385Z,0.00
2018-10-03T03:57:18.358Z,0.00
2018-10-03T03:58:18.333Z,0.00
2018-10-03T03:59:18.303Z,0.00
2018-10-03T04:00:18.287Z,0.00
2018-10-03T04:01:18.247Z,0.00
2018-10-03T04:02:18.223Z,0.00
2018-10-03T04:03:18.204Z,0.00
2018-10-03T04:04:18.174Z,0.00
2018-10-03T04:05:18.143Z,0.00
2018-10-03T04:06:18.134Z,0.00
2018-10-03T04:07:18.095Z,0.00
2018-10-03T04:08:18.070Z,0.00
2018-10-03T04:09:18.038Z,0.00
2018-10-03T04:10:18.010Z,0.00
2018-10-03T04:11:17.983Z,0.00
2018-10-03T04:12:17.957Z,0.00
2018-10-03T04:13:17.934Z,0.00
2018-10-03T04:14:17.902Z,0.00
2018-10-03T04:15:17.880Z,0.00
2018-10-03T04:16:17.851Z,0.00
2018-10-03T04:17:17.829Z,0.00
2018-10-03T04:18:17.797Z,0.00
2018-10-03T04:19:17.774Z,0.00
2018-10-03T04:20:17.741Z,0.00
2018-10-03T04:21:17.720Z,0.00
2018-10-03T04:22:17.695Z,0.00
2018-10-03T04:23:17.667Z,0.00
2018-10-03T04:24:17.634Z,0.00
2018-10-03T04:25:17.612Z,0.00
2018-10-03T04:26:17.590Z,0.00
2018-10-03T04:27:17.552Z,0.00
2018-10-03T04:28:17.530Z,0.00
2018-10-03T04:29:17.503Z,0.00
2018-10-03T04:30:17.472Z,0.00
2018-10-03T04:31:17.457Z,0.00
2018-10-03T04:32:17.423Z,0.00
2018-10-03T04:33:17.392Z,0.00
2018-10-03T04:34:17.371Z,0.00
2018-10-03T04:35:17.352Z,0.00
2018-10-03T04:36:17.318Z,0.00
2018-10-03T04:37:17.288Z,0.00
2018-10-03T04:38:17.264Z,0.00
2018-10-03T04:39:17.237Z,0.00
2018-10-03T04:40:17.215Z,0.00
2018-10-03T04:41:17.184Z,0.00
2018-10-03T04:42:17.209Z,0.00
2018-10-03T04:43:17.137Z,0.00
2018-10-03T04:44:17.105Z,0.00
2018-10-03T04:45:17.081Z,0.00
2018-10-03T04:46:17.056Z,0.00
2018-10-03T04:47:17.020Z,0.00
2018-10-03T04:48:16.995Z,0.00
2018-10-03T04:49:16.969Z,0.00
2018-10-03T04:50:16.944Z,0.00
2018-10-03T04:51:16.921Z,0.00
2018-10-03T04:52:16.902Z,0.00
2018-10-03T04:53:16.859Z,0.00
2018-10-03T04:54:16.833Z,0.00
2018-10-03T04:55:16.807Z,0.00
2018-10-03T04:56:16.798Z,0.00
2018-10-03T04:57:16.753Z,0.00
2018-10-03T04:58:16.769Z,0.00
2018-10-03T04:59:16.711Z,0.00
2018-10-03T05:00:16.671Z,0.00
2018-10-03T05:01:16.662Z,0.00
2018-10-03T05:02:16.623Z,0.00
2018-10-03T05:03:16.599Z,0.00
2018-10-03T05:04:16.567Z,0.00
2018-10-03T05:05:16.542Z,0.00
2018-10-03T05:06:16.517Z,0.00
2018-10-03T05:07:16.485Z,0.00
2018-10-03T05:08:16.458Z,0.00
2018-10-03T05:09:16.439Z,0.00
2018-10-03T05:10:16.412Z,0.00
2018-10-03T05:11:16.415Z,0.00
2018-10-03T05:12:16.357Z,0.00
2018-10-03T05:13:16.327Z,0.00
2018-10-03T05:14:16.301Z,0.00
2018-10-03T05:15:16.285Z,0.00
2018-10-03T05:16:16.252Z,0.00
2018-10-03T05:17:16.227Z,0.00
2018-10-03T05:18:16.200Z,0.00
2018-10-03T05:19:16.219Z,0.00
2018-10-03T05:20:16.142Z,0.00
2018-10-03T05:21:16.123Z,0.00
2018-10-03T05:22:16.088Z,0.00
2018-10-03T05:23:16.060Z,0.00
2018-10-03T05:24:16.039Z,0.00
2018-10-03T05:25:16.008Z,0.00
2018-10-03T05:26:15.985Z,0.00
2018-10-03T05:27:15.953Z,0.00
2018-10-03T05:28:15.937Z,0.00
2018-10-03T05:29:15.907Z,0.00
2018-10-03T05:30:15.873Z,0.00
2018-10-03T05:31:15.852Z,0.00
2018-10-03T05:32:15.817Z,0.00
2018-10-03T05:33:15.844Z,0.00
2018-10-03T05:34:15.775Z,0.00
2018-10-03T05:35:15.755Z,0.00
2018-10-03T05:36:15.717Z,0.00
2018-10-03T05:37:15.684Z,0.00
2018-10-03T05:38:15.661Z,0.00
2018-10-03T05:39:15.637Z,0.00
2018-10-03T05:40:15.604Z,0.00
2018-10-03T05:41:15.609Z,0.00
2018-10-03T05:42:15.560Z,0.00
2018-10-03T05:43:15.551Z,0.00
2018-10-03T05:44:15.514Z,0.00
2018-10-03T05:45:15.479Z,0.00
2018-10-03T05:46:15.443Z,0.00
2018-10-03T05:47:15.425Z,0.00
2018-10-03T05:48:15.431Z,0.00
2018-10-03T05:49:15.366Z,0.00
2018-10-03T05:50:15.372Z,0.00
2018-10-03T05:51:15.311Z,0.00
2018-10-03T05:52:15.283Z,0.00
2018-10-03T05:53:15.272Z,0.00
2018-10-03T05:54:15.236Z,0.00
2018-10-03T05:55:15.217Z,0.00
2018-10-03T05:56:15.182Z,0.00
2018-10-03T05:57:15.162Z,0.00
2018-10-03T05:58:15.138Z,0.00
2018-10-03T05:59:15.096Z,0.00
2018-10-03T06:00:15.077Z,0.00
2018-10-03T06:01:15.069Z,0.00
2018-10-03T06:02:15.026Z,0.00
2018-10-03T06:03:14.991Z,0.00
2018-10-03T06:04:14.966Z,0.00
2018-10-03T06:05:14.939Z,0.00
2018-10-03T06:06:14.909Z,0.00
2018-10-03T06:07:14.891Z,0.00
2018-10-03T06:08:14.900Z,0.00
2018-10-03T06:09:14.836Z,0.00
2018-10-03T06:10:14.807Z,0.00
2018-10-03T06:11:14.784Z,0.00
2018-10-03T06:12:14.839Z,0.00
2018-10-03T06:13:14.721Z,0.00
2018-10-03T06:14:14.701Z,0.00
2018-10-03T06:15:14.674Z,0.00
2018-10-03T06:16:14.645Z,0.00
2018-10-03T06:17:14.621Z,0.00
2018-10-03T06:18:14.595Z,0.00
2018-10-03T06:19:14.572Z,0.00
2018-10-03T06:20:14.541Z,0.00
2018-10-03T06:21:14.510Z,0.00
2018-10-03T06:22:14.493Z,0.00
2018-10-03T06:23:14.458Z,0.57
2018-10-03T06:24:14.435Z,0.00
2018-10-03T06:25:14.406Z,0.76
2018-10-03T06:26:14.383Z,2.19
2018-10-03T06:27:14.367Z,3.43
2018-10-03T06:28:14.394Z,4.38
2018-10-03T06:29:14.303Z,2.67
2018-10-03T06:30:14.287Z,1.14
2018-10-03T06:31:14.250Z,1.33
2018-10-03T06:32:14.216Z,1.14
2018-10-03T06:33:14.201Z,4.48
2018-10-03T06:34:14.164Z,3.43
2018-10-03T06:35:14.305Z,3.24
2018-10-03T06:36:14.133Z,2.19
2018-10-03T06:37:14.084Z,4.77
2018-10-03T06:38:14.076Z,5.91
2018-10-03T06:39:14.052Z,4.38
2018-10-03T06:40:14.093Z,5.72
2018-10-03T06:41:14.015Z,4.67
2018-10-03T06:42:13.958Z,5.34
2018-10-03T06:43:13.924Z,5.43
2018-10-03T06:44:13.896Z,7.06
2018-10-03T06:45:13.889Z,6.96
2018-10-03T06:46:13.854Z,6.01
2018-10-03T06:47:13.820Z,7.91
2018-10-03T06:48:13.798Z,8.11
2018-10-03T06:49:13.853Z,8.20
2018-10-03T06:50:13.743Z,7.06
2018-10-03T06:51:13.708Z,8.77
2018-10-03T06:52:13.691Z,9.72
2018-10-03T06:53:13.660Z,9.16
2018-10-03T06:54:13.627Z,8.67
2018-10-03T06:55:13.610Z,9.82
2018-10-03T06:56:13.577Z,10.96
2018-10-03T06:57:13.553Z,10.68
2018-10-03T06:58:13.523Z,9.92
2018-10-03T06:59:13.509Z,13.35
2018-10-03T07:00:13.492Z,13.54
2018-10-03T07:01:13.448Z,11.72
2018-10-03T07:02:13.415Z,11.16
2018-10-03T07:03:13.392Z,11.25
2018-10-03T07:04:13.366Z,11.44
2018-10-03T07:05:13.343Z,11.44
2018-10-03T07:06:13.316Z,12.21
2018-10-03T07:07:13.288Z,11.82
2018-10-03T07:08:13.269Z,10.30
2018-10-03T07:09:13.231Z,11.06
2018-10-03T07:10:13.202Z,14.01
2018-10-03T07:11:13.182Z,14.69
2018-10-03T07:12:13.152Z,16.50
2018-10-03T07:13:13.210Z,17.74
2018-10-03T07:14:13.105Z,17.08
2018-10-03T07:15:13.071Z,17.36
2018-10-03T07:16:13.049Z,19.65
2018-10-03T07:17:13.018Z,19.27
2018-10-03T07:18:12.995Z,22.33
2018-10-03T07:19:12.974Z,21.18
2018-10-03T07:20:13.075Z,25.85
2018-10-03T07:21:12.941Z,30.72
2018-10-03T07:22:12.907Z,27.95
2018-10-03T07:23:12.854Z,29.19
2018-10-03T07:24:12.862Z,30.15
2018-10-03T07:25:12.851Z,27.86
2018-10-03T07:26:12.829Z,31.20
2018-10-03T07:27:12.790Z,31.29
2018-10-03T07:28:12.765Z,32.53
2018-10-03T07:29:12.728Z,33.87
2018-10-03T07:30:12.717Z,36.08
2018-10-03T07:31:12.648Z,36.07
2018-10-03T07:32:12.655Z,40.28
2018-10-03T07:33:12.636Z,37.61
2018-10-03T07:34:12.626Z,38.95
2018-10-03T07:35:12.593Z,41.71
2018-10-03T07:36:12.536Z,44.01
2018-10-03T07:37:12.519Z,44.01
2018-10-03T07:38:12.498Z,49.07
2018-10-03T07:39:12.458Z,49.35
2018-10-03T07:40:12.467Z,47.54
2018-10-03T07:41:12.417Z,47.34
2018-10-03T07:42:12.398Z,46.20
2018-10-03T07:43:12.367Z,49.07
2018-10-03T07:44:12.424Z,46.11
2018-10-03T07:45:12.314Z,46.68
2018-10-03T07:46:12.250Z,49.26
2018-10-03T07:47:12.260Z,50.12
2018-10-03T07:48:12.286Z,55.36
2018-10-03T07:49:12.170Z,52.69
2018-10-03T07:50:12.182Z,50.40
2018-10-03T07:51:12.116Z,56.32
2018-10-03T07:52:12.093Z,54.89
2018-10-03T07:53:12.069Z,58.14
2018-10-03T07:54:12.039Z,58.33
2018-10-03T07:55:12.006Z,56.51
2018-10-03T07:56:11.993Z,60.61
2018-10-03T07:57:11.966Z,58.51
2018-10-03T07:58:11.949Z,57.56
2018-10-03T07:59:11.913Z,55.87
2018-10-03T08:00:11.912Z,66.44
2018-10-03T08:01:11.847Z,64.85
2018-10-03T08:02:11.821Z,61.60
2018-10-03T08:03:11.808Z,61.95
2018-10-03T08:04:11.774Z,62.34
2018-10-03T08:05:11.750Z,59.98
2018-10-03T08:06:11.719Z,66.56
2018-10-03T08:07:11.691Z,67.14
2018-10-03T08:08:11.675Z,67.71
2018-10-03T08:09:11.645Z,66.85
2018-10-03T08:10:11.642Z,62.65
2018-10-03T08:11:11.637Z,64.09
2018-10-03T08:12:11.580Z,65.14
2018-10-03T08:13:11.567Z,62.75
2018-10-03T08:14:11.559Z,64.75
2018-10-03T08:15:11.518Z,67.71
2018-10-03T08:16:11.487Z,68.67
2018-10-03T08:17:11.518Z,67.62
2018-10-03T08:18:11.443Z,63.03
2018-10-03T08:19:11.385Z,60.46
2018-10-03T08:20:11.413Z,67.14
2018-10-03T08:21:11.364Z,66.85
2018-10-03T08:22:11.336Z,66.00
2018-10-03T08:23:11.316Z,66.56
2018-10-03T08:24:11.255Z,65.04
2018-10-03T08:25:11.258Z,68.76
2018-10-03T08:26:11.225Z,68.48
2018-10-03T08:27:11.167Z,69.15
2018-10-03T08:28:11.136Z,73.54
2018-10-03T08:29:11.107Z,69.82
2018-10-03T08:30:11.174Z,66.19
2018-10-03T08:31:11.060Z,66.79
2018-10-03T08:32:11.037Z,69.82
2018-10-03T08:33:11.024Z,66.66
2018-10-03T08:34:10.994Z,62.97
2018-10-03T08:35:10.953Z,75.20
2018-10-03T08:36:10.919Z,75.01
2018-10-03T08:37:10.903Z,72.62
2018-10-03T08:38:10.869Z,76.92
2018-10-03T08:39:10.851Z,75.20
2018-10-03T08:40:10.821Z,74.53
2018-10-03T08:41:10.798Z,79.98
2018-10-03T08:42:10.768Z,85.05
2018-10-03T08:43:10.739Z,85.05
2018-10-03T08:44:10.717Z,82.94
2018-10-03T08:45:10.685Z,81.99
2018-10-03T08:46:10.663Z,87.72
2018-10-03T08:47:10.648Z,81.70
2018-10-03T08:48:10.606Z,81.32
2018-10-03T08:49:10.581Z,84.85
2018-10-03T08:50:10.558Z,84.76
2018-10-03T08:51:10.527Z,83.70
2018-10-03T08:52:10.503Z,85.42
2018-10-03T08:53:10.480Z,84.47
2018-10-03T08:54:10.458Z,83.90
2018-10-03T08:55:13.579Z,86.19
2018-10-03T08:56:10.411Z,84.66
2018-10-03T08:57:10.425Z,84.66
2018-10-03T08:58:10.391Z,85.90
2018-10-03T08:59:10.320Z,88.20
2018-10-03T09:00:10.302Z,85.52
2018-10-03T09:01:10.274Z,86.19
2018-10-03T09:02:10.245Z,85.71
2018-10-03T09:03:10.210Z,87.24
2018-10-03T09:04:10.194Z,90.01
2018-10-03T09:05:10.161Z,88.29
2018-10-03T09:06:10.147Z,87.62
2018-10-03T09:07:10.108Z,87.24
2018-10-03T09:08:10.084Z,88.01
2018-10-03T09:09:10.075Z,88.58
2018-10-03T09:10:10.047Z,86.76
2018-10-03T09:11:10.028Z,88.68
2018-10-03T09:12:09.995Z,87.24
2018-10-03T09:13:09.968Z,84.76
2018-10-03T09:14:09.938Z,83.33
2018-10-03T09:15:09.933Z,85.05
2018-10-03T09:16:09.885Z,85.14
2018-10-03T09:17:09.865Z,84.56
2018-10-03T09:18:09.846Z,82.84
2018-10-03T09:19:09.808Z,84.95
2018-10-03T09:20:09.783Z,84.85
2018-10-03T09:21:09.776Z,91.25
2018-10-03T09:22:09.715Z,92.59
2018-10-03T09:23:09.747Z,90.78
2018-10-03T09:24:09.665Z,96.42
2018-10-03T09:25:09.630Z,99.99
2018-10-03T09:26:09.608Z,96.61
2018-10-03T09:27:09.576Z,99.09
2018-10-03T09:28:09.560Z,99.38
2018-10-03T09:29:09.527Z,99.57
2018-10-03T09:30:09.502Z,98.90
2018-10-03T09:31:09.475Z,98.99
2018-10-03T09:32:09.445Z,99.66
2018-10-03T09:33:09.426Z,99.99
2018-10-03T09:34:09.398Z,99.09
2018-10-03T09:35:09.365Z,98.52
2018-10-03T09:36:09.340Z,97.08
2018-10-03T09:37:09.316Z,95.56
2018-10-03T09:38:09.332Z,96.22
2018-10-03T09:39:09.263Z,95.56
2018-10-03T09:40:09.245Z,98.33
2018-10-03T09:41:09.210Z,98.71
2018-10-03T09:42:09.181Z,98.71
2018-10-03T09:43:09.162Z,99.99
2018-10-03T09:44:09.135Z,98.66
2018-10-03T09:45:09.107Z,99.24
2018-10-03T09:46:09.088Z,99.99
2018-10-03T09:47:09.096Z,99.99
2018-10-03T09:48:09.027Z,99.99
2018-10-03T09:49:09.013Z,99.33
2018-10-03T09:50:09.000Z,99.99
2018-10-03T09:51:08.957Z,99.99
2018-10-03T09:52:08.961Z,99.99
2018-10-03T09:53:08.965Z,99.99
2018-10-03T09:54:08.887Z,99.99
2018-10-03T09:55:08.879Z,99.99
2018-10-03T09:56:08.822Z,99.99
2018-10-03T09:57:08.810Z,99.99
2018-10-03T09:58:08.782Z,99.99
2018-10-03T09:59:08.738Z,99.99
2018-10-03T10:00:08.742Z,99.99
2018-10-03T10:01:08.703Z,99.99
2018-10-03T10:02:08.694Z,99.99
2018-10-03T10:03:08.654Z,99.99
2018-10-03T10:04:08.651Z,99.99
2018-10-03T10:05:08.619Z,99.99
2018-10-03T10:06:08.548Z,99.99
2018-10-03T10:07:08.544Z,99.99
2018-10-03T10:08:08.510Z,99.99
2018-10-03T10:09:08.475Z,99.99
2018-10-03T10:10:08.483Z,99.99
2018-10-03T10:11:08.467Z,99.99
2018-10-03T10:12:08.395Z,99.99
2018-10-03T10:13:08.379Z,99.99
2018-10-03T10:14:08.344Z,99.99
2018-10-03T10:15:08.324Z,99.99
2018-10-03T10:16:08.289Z,99.99
2018-10-03T10:17:08.269Z,99.99
2018-10-03T10:18:08.242Z,99.99
2018-10-03T10:19:08.210Z,99.99
2018-10-03T10:20:08.190Z,99.99
2018-10-03T10:21:08.156Z,99.99
2018-10-03T10:22:08.136Z,99.99
2018-10-03T10:23:08.132Z,99.99
2018-10-03T10:24:08.099Z,99.99
2018-10-03T10:25:08.052Z,99.99
2018-10-03T10:26:08.036Z,99.99
2018-10-03T10:27:08.007Z,99.99
2018-10-03T10:28:07.973Z,99.99
2018-10-03T10:29:07.961Z,99.99
2018-10-03T10:30:07.931Z,99.99
2018-10-03T10:31:07.903Z,99.99
2018-10-03T10:32:07.930Z,99.99
2018-10-03T10:33:07.943Z,99.99
2018-10-03T10:34:07.817Z,99.99
2018-10-03T10:35:07.836Z,99.99
2018-10-03T10:36:07.772Z,99.99
2018-10-03T10:37:07.742Z,99.99
2018-10-03T10:38:07.737Z,99.99
2018-10-03T10:39:07.686Z,99.99
2018-10-03T10:40:07.768Z,99.99
2018-10-03T10:41:07.711Z,99.99
2018-10-03T10:42:07.607Z,99.99
2018-10-03T10:43:07.593Z,99.99
2018-10-03T10:44:07.566Z,99.99
2018-10-03T10:45:07.538Z,98.81
2018-10-03T10:46:07.517Z,99.00
2018-10-03T10:47:07.481Z,99.96
2018-10-03T10:48:07.455Z,99.48
2018-10-03T10:49:07.435Z,99.99
2018-10-03T10:50:07.459Z,98.81
2018-10-03T10:51:07.379Z,97.66
2018-10-03T10:52:07.356Z,98.24
2018-10-03T10:53:07.350Z,98.24
2018-10-03T10:54:07.299Z,97.66
2018-10-03T10:55:07.276Z,97.09
2018-10-03T10:56:07.283Z,97.09
2018-10-03T10:57:07.227Z,97.90
2018-10-03T10:58:07.199Z,99.19
2018-10-03T10:59:07.167Z,96.80
2018-10-03T11:00:07.239Z,96.70
2018-10-03T11:01:07.118Z,97.56
2018-10-03T11:02:07.092Z,95.07
2018-10-03T11:03:07.069Z,95.46
2018-10-03T11:04:07.035Z,96.61
2018-10-03T11:05:07.019Z,93.45
2018-10-03T11:06:07.025Z,95.31
2018-10-03T11:07:06.969Z,95.51
2018-10-03T11:08:06.947Z,97.75
2018-10-03T11:09:06.905Z,98.28
2018-10-03T11:10:06.884Z,95.61
2018-10-03T11:11:06.859Z,93.12
2018-10-03T11:12:06.831Z,92.83
2018-10-03T11:13:06.804Z,92.83
2018-10-03T11:14:06.778Z,94.93
2018-10-03T11:15:06.751Z,94.26
2018-10-03T11:16:06.725Z,96.56
2018-10-03T11:17:06.758Z,93.98
2018-10-03T11:18:06.676Z,91.77
2018-10-03T11:19:06.650Z,93.40
2018-10-03T11:20:06.624Z,92.06
2018-10-03T11:21:06.597Z,92.83
2018-10-03T11:22:07.609Z,90.44
2018-10-03T11:23:06.555Z,92.06
2018-10-03T11:24:07.361Z,91.20
2018-10-03T11:25:07.133Z,92.35
2018-10-03T11:26:06.463Z,94.07
2018-10-03T11:27:06.451Z,96.66
2018-10-03T11:28:06.412Z,96.08
2018-10-03T11:29:07.097Z,96.94
2018-10-03T11:30:06.366Z,96.08
2018-10-03T11:31:06.332Z,96.94
2018-10-03T11:32:06.367Z,95.51
2018-10-03T11:33:06.641Z,93.50
2018-10-03T11:34:07.096Z,95.31
2018-10-03T11:35:06.498Z,93.12
2018-10-03T11:36:07.102Z,92.63
2018-10-03T11:37:06.337Z,92.73
2018-10-03T11:38:06.308Z,92.16
2018-10-03T11:39:06.152Z,92.69
2018-10-03T11:40:06.104Z,90.39
2018-10-03T11:41:06.078Z,90.48
2018-10-03T11:42:06.051Z,89.72
2018-10-03T11:43:06.032Z,91.06
2018-10-03T11:44:05.996Z,94.79
2018-10-03T11:45:05.973Z,90.20
2018-10-03T11:46:05.947Z,88.86
2018-10-03T11:47:05.915Z,91.06
2018-10-03T11:48:05.895Z,91.44
2018-10-03T11:49:05.858Z,91.16
2018-10-03T11:50:05.862Z,90.10
2018-10-03T11:51:05.814Z,88.00
2018-10-03T11:52:05.845Z,87.56
2018-10-03T11:53:05.764Z,87.85
2018-10-03T11:54:05.741Z,87.90
2018-10-03T11:55:05.709Z,88.23
2018-10-03T11:56:05.684Z,90.05
2018-10-03T11:57:05.728Z,90.05
2018-10-03T11:58:05.628Z,87.27
2018-10-03T11:59:05.608Z,87.76
2018-10-03T12:00:05.575Z,88.18
2018-10-03T12:01:05.550Z,86.04
2018-10-03T12:02:05.522Z,83.39
2018-10-03T12:03:05.675Z,80.04
2018-10-03T12:04:05.471Z,81.00
2018-10-03T12:05:05.443Z,83.01
2018-10-03T12:06:05.428Z,84.06
2018-10-03T12:07:05.395Z,85.60
2018-10-03T12:08:05.445Z,86.55
2018-10-03T12:09:05.352Z,86.36
2018-10-03T12:10:05.317Z,82.53
2018-10-03T12:11:05.288Z,83.01
2018-10-03T12:12:05.342Z,81.00
2018-10-03T12:13:05.250Z,80.24
2018-10-03T12:14:05.210Z,82.15
2018-10-03T12:15:05.186Z,80.67
2018-10-03T12:16:05.157Z,81.25
2018-10-03T12:17:05.137Z,82.49
2018-10-03T12:18:05.110Z,82.59
2018-10-03T12:19:05.094Z,84.88
2018-10-03T12:20:05.058Z,80.87
2018-10-03T12:21:05.025Z,81.34
2018-10-03T12:22:05.010Z,81.63
2018-10-03T12:23:04.972Z,82.01
2018-10-03T12:24:04.957Z,81.54
2018-10-03T12:25:04.929Z,81.15
2018-10-03T12:26:04.903Z,81.34
2018-10-03T12:27:04.868Z,83.36
2018-10-03T12:28:04.847Z,82.49
2018-10-03T12:29:04.822Z,82.87
2018-10-03T12:30:04.792Z,80.29
2018-10-03T12:31:04.774Z,81.44
2018-10-03T12:32:04.745Z,82.01
2018-10-03T12:33:04.710Z,79.52
2018-10-03T12:34:04.688Z,81.54
2018-10-03T12:35:04.691Z,81.57
2018-10-03T12:36:04.638Z,84.26
2018-10-03T12:37:04.609Z,80.43
2018-10-03T12:38:04.582Z,76.89
2018-10-03T12:39:04.563Z,76.79
2018-10-03T12:40:04.598Z,75.54
2018-10-03T12:41:04.510Z,75.73
2018-10-03T12:42:04.474Z,73.95
2018-10-03T12:43:04.458Z,73.57
2018-10-03T12:44:04.434Z,73.28
2018-10-03T12:46:04.426Z,74.72
2018-10-03T12:47:04.376Z,72.99
2018-10-03T12:48:04.344Z,73.09
2018-10-03T12:49:04.326Z,74.05
2018-10-03T12:50:04.277Z,74.95
2018-10-03T12:51:04.275Z,74.33
2018-10-03T12:52:25.278Z,72.03
2018-10-03T12:53:04.232Z,72.94
2018-10-03T12:54:04.184Z,71.98
2018-10-03T12:55:04.182Z,72.55
2018-10-03T12:56:04.144Z,70.44
2018-10-03T12:57:04.102Z,69.96
2018-10-03T12:58:25.086Z,69.68
2018-10-03T12:59:04.048Z,69.96
2018-10-03T13:00:04.026Z,70.35
2018-10-03T13:01:04.035Z,69.29
2018-10-03T13:02:03.986Z,70.64
2018-10-03T13:03:03.955Z,71.11
2018-10-03T13:04:24.947Z,70.35
2018-10-03T13:05:03.894Z,70.64
2018-10-03T13:06:03.876Z,69.71
2018-10-03T13:07:03.853Z,68.62